Terminal Aerodrome Forecast
Issued by NWS

Home | Current Version | Previous Version | Text Only | Print | Product List | Glossary On
Versions: 1 2 3 4 5 6 7 8 9 10 11 12 13 14 15 16
925
FTUS44 KTSA 191727
TAFXNA
TAF
KXNA 191727Z 1918/2018 15012KT P6SM SCT250
     FM200300 16006KT P6SM VCSH OVC015
     FM200900 17009KT 4SM BR VCTS OVC015CB
      TEMPO 2010/2014 2SM -TSRA OVC007CB
     FM201400 18008KT 4SM -RA BR OVC007=

USA.gov is the U.S. government's official web portal to all federal, state and local government web resources and services.